sensor_id;sensor_type;location;lat;lon;timestamp;temperature;humidity
39103;DHT22;24847;48.218;16.414;2022-07-04T00:03:52;23.20;98.50
39103;DHT22;24847;48.218;16.414;2022-07-04T00:08:56;23.30;98.60
39103;DHT22;24847;48.218;16.414;2022-07-04T00:13:58;23.10;98.50
39103;DHT22;24847;48.218;16.414;2022-07-04T00:19:01;22.90;98.60
39103;DHT22;24847;48.218;16.414;2022-07-04T00:24:05;22.80;98.70
39103;DHT22;24847;48.218;16.414;2022-07-04T00:29:07;22.90;98.80
39103;DHT22;24847;48.218;16.414;2022-07-04T00:34:09;22.70;99.20
39103;DHT22;24847;48.218;16.414;2022-07-04T00:39:13;22.40;99.90
39103;DHT22;24847;48.218;16.414;2022-07-04T00:44:15;22.10;99.90
39103;DHT22;24847;48.218;16.414;2022-07-04T00:49:18;22.30;99.90
39103;DHT22;24847;48.218;16.414;2022-07-04T00:54:25;22.10;99.90
39103;DHT22;24847;48.218;16.414;2022-07-04T00:59:29;22.20;99.90
39103;DHT22;24847;48.218;16.414;2022-07-04T01:04:31;22.10;99.90
39103;DHT22;24847;48.218;16.414;2022-07-04T01:09:35;22.10;99.90
39103;DHT22;24847;48.218;16.414;2022-07-04T01:14:38;22.10;99.90
39103;DHT22;24847;48.218;16.414;2022-07-04T01:19:40;22.20;99.90
39103;DHT22;24847;48.218;16.414;2022-07-04T01:24:43;22.10;99.90
39103;DHT22;24847;48.218;16.414;2022-07-04T01:29:46;22.20;99.90
39103;DHT22;24847;48.218;16.414;2022-07-04T01:34:48;22.40;99.90
39103;DHT22;24847;48.218;16.414;2022-07-04T01:39:51;22.10;99.90
39103;DHT22;24847;48.218;16.414;2022-07-04T01:44:54;21.80;99.90
39103;DHT22;24847;48.218;16.414;2022-07-04T01:49:56;21.70;99.90
39103;DHT22;24847;48.218;16.414;2022-07-04T01:55:00;21.80;99.90
39103;DHT22;24847;48.218;16.414;2022-07-04T02:00:04;21.60;99.90
39103;DHT22;24847;48.218;16.414;2022-07-04T02:05:25;21.70;99.90
39103;DHT22;24847;48.218;16.414;2022-07-04T02:10:29;21.40;99.90
39103;DHT22;24847;48.218;16.414;2022-07-04T02:15:33;21.40;99.90
39103;DHT22;24847;48.218;16.414;2022-07-04T02:20:37;21.70;99.90
39103;DHT22;24847;48.218;16.414;2022-07-04T02:25:41;22.10;99.90
39103;DHT22;24847;48.218;16.414;2022-07-04T02:30:43;22.30;99.90
39103;DHT22;24847;48.218;16.414;2022-07-04T02:35:45;21.90;99.90
39103;DHT22;24847;48.218;16.414;2022-07-04T02:40:48;21.90;99.90
39103;DHT22;24847;48.218;16.414;2022-07-04T02:45:51;22.20;99.90
39103;DHT22;24847;48.218;16.414;2022-07-04T02:50:54;22.30;99.90
39103;DHT22;24847;48.218;16.414;2022-07-04T02:55:58;22.30;99.90
39103;DHT22;24847;48.218;16.414;2022-07-04T03:01:03;22.30;99.90
39103;DHT22;24847;48.218;16.414;2022-07-04T03:06:06;22.30;99.90
39103;DHT22;24847;48.218;16.414;2022-07-04T03:11:11;22.30;99.90
39103;DHT22;24847;48.218;16.414;2022-07-04T03:16:13;22.20;99.90
39103;DHT22;24847;48.218;16.414;2022-07-04T03:21:16;22.10;99.90
39103;DHT22;24847;48.218;16.414;2022-07-04T03:26:19;22.30;99.90
39103;DHT22;24847;48.218;16.414;2022-07-04T03:31:22;22.30;99.90
39103;DHT22;24847;48.218;16.414;2022-07-04T03:36:24;22.30;99.90
39103;DHT22;24847;48.218;16.414;2022-07-04T03:41:28;22.40;99.90
39103;DHT22;24847;48.218;16.414;2022-07-04T03:46:30;22.30;99.90
39103;DHT22;24847;48.218;16.414;2022-07-04T03:51:32;21.90;99.90
39103;DHT22;24847;48.218;16.414;2022-07-04T03:56:36;21.60;99.90
39103;DHT22;24847;48.218;16.414;2022-07-04T04:01:40;21.50;99.90
39103;DHT22;24847;48.218;16.414;2022-07-04T04:06:43;21.20;99.90
39103;DHT22;24847;48.218;16.414;2022-07-04T04:11:46;21.10;99.90
39103;DHT22;24847;48.218;16.414;2022-07-04T04:16:48;21.20;99.90
39103;DHT22;24847;48.218;16.414;2022-07-04T04:21:51;21.30;99.90
39103;DHT22;24847;48.218;16.414;2022-07-04T04:26:54;21.20;99.90
39103;DHT22;24847;48.218;16.414;2022-07-04T04:31:57;21.20;99.90
39103;DHT22;24847;48.218;16.414;2022-07-04T04:36:59;21.20;99.90
39103;DHT22;24847;48.218;16.414;2022-07-04T04:42:03;21.40;99.90
39103;DHT22;24847;48.218;16.414;2022-07-04T04:47:06;21.60;99.90
39103;DHT22;24847;48.218;16.414;2022-07-04T04:52:08;22.00;99.90
39103;DHT22;24847;48.218;16.414;2022-07-04T04:57:13;21.90;99.90
39103;DHT22;24847;48.218;16.414;2022-07-04T05:02:15;22.50;99.90
39103;DHT22;24847;48.218;16.414;2022-07-04T05:07:17;22.90;99.90
39103;DHT22;24847;48.218;16.414;2022-07-04T05:12:21;23.10;99.90
39103;DHT22;24847;48.218;16.414;2022-07-04T05:17:23;23.20;99.90
39103;DHT22;24847;48.218;16.414;2022-07-04T05:22:25;23.30;99.90
39103;DHT22;24847;48.218;16.414;2022-07-04T05:27:29;24.00;99.90
39103;DHT22;24847;48.218;16.414;2022-07-04T05:32:32;23.70;99.90
39103;DHT22;24847;48.218;16.414;2022-07-04T05:37:34;24.10;99.90
39103;DHT22;24847;48.218;16.414;2022-07-04T05:42:38;24.20;99.90
39103;DHT22;24847;48.218;16.414;2022-07-04T05:47:40;25.90;99.70
39103;DHT22;24847;48.218;16.414;2022-07-04T05:52:43;25.50;99.90
39103;DHT22;24847;48.218;16.414;2022-07-04T05:57:47;24.50;99.90
39103;DHT22;24847;48.218;16.414;2022-07-04T06:02:49;24.20;99.90
39103;DHT22;24847;48.218;16.414;2022-07-04T06:07:51;24.80;99.90
39103;DHT22;24847;48.218;16.414;2022-07-04T06:12:55;24.60;99.90
39103;DHT22;24847;48.218;16.414;2022-07-04T06:17:57;24.30;99.90
39103;DHT22;24847;48.218;16.414;2022-07-04T06:23:00;25.60;99.90
39103;DHT22;24847;48.218;16.414;2022-07-04T06:28:04;25.20;99.80
39103;DHT22;24847;48.218;16.414;2022-07-04T06:33:06;25.10;99.90
39103;DHT22;24847;48.218;16.414;2022-07-04T06:38:09;24.90;99.90
39103;DHT22;24847;48.218;16.414;2022-07-04T06:43:13;25.00;99.90
39103;DHT22;24847;48.218;16.414;2022-07-04T06:48:15;26.80;99.50
39103;DHT22;24847;48.218;16.414;2022-07-04T06:53:18;26.60;98.20
39103;DHT22;24847;48.218;16.414;2022-07-04T06:58:21;25.50;99.90
39103;DHT22;24847;48.218;16.414;2022-07-04T07:03:23;24.90;99.90
39103;DHT22;24847;48.218;16.414;2022-07-04T07:08:28;26.00;99.90
39103;DHT22;24847;48.218;16.414;2022-07-04T07:13:31;25.90;99.80
39103;DHT22;24847;48.218;16.414;2022-07-04T07:18:34;25.60;98.40
39103;DHT22;24847;48.218;16.414;2022-07-04T07:23:38;25.90;97.10
39103;DHT22;24847;48.218;16.414;2022-07-04T07:28:42;26.10;96.40
39103;DHT22;24847;48.218;16.414;2022-07-04T07:33:45;27.40;94.80
39103;DHT22;24847;48.218;16.414;2022-07-04T07:38:47;27.20;94.80
39103;DHT22;24847;48.218;16.414;2022-07-04T07:43:53;27.80;93.80
39103;DHT22;24847;48.218;16.414;2022-07-04T07:48:56;28.60;93.20
39103;DHT22;24847;48.218;16.414;2022-07-04T07:53:58;27.80;93.10
39103;DHT22;24847;48.218;16.414;2022-07-04T07:59:02;26.70;93.40
39103;DHT22;24847;48.218;16.414;2022-07-04T08:04:04;26.30;93.70
39103;DHT22;24847;48.218;16.414;2022-07-04T08:09:24;26.80;92.80
39103;DHT22;24847;48.218;16.414;2022-07-04T08:14:28;27.10;92.20
39103;DHT22;24847;48.218;16.414;2022-07-04T08:19:30;27.90;91.30
39103;DHT22;24847;48.218;16.414;2022-07-04T08:24:33;29.20;90.20
39103;DHT22;24847;48.218;16.414;2022-07-04T08:29:36;30.60;87.20
39103;DHT22;24847;48.218;16.414;2022-07-04T08:34:38;30.10;85.20
39103;DHT22;24847;48.218;16.414;2022-07-04T08:39:41;29.20;86.30
39103;DHT22;24847;48.218;16.414;2022-07-04T08:44:47;28.70;88.30
39103;DHT22;24847;48.218;16.414;2022-07-04T08:49:54;28.20;88.80
39103;DHT22;24847;48.218;16.414;2022-07-04T08:55:01;27.70;90.00
39103;DHT22;24847;48.218;16.414;2022-07-04T09:00:23;27.10;90.30
39103;DHT22;24847;48.218;16.414;2022-07-04T09:05:25;27.60;90.30
39103;DHT22;24847;48.218;16.414;2022-07-04T09:10:29;27.80;89.60
39103;DHT22;24847;48.218;16.414;2022-07-04T09:15:33;27.60;89.30
39103;DHT22;24847;48.218;16.414;2022-07-04T09:20:37;27.10;90.00
39103;DHT22;24847;48.218;16.414;2022-07-04T09:25:40;26.80;90.60
39103;DHT22;24847;48.218;16.414;2022-07-04T09:30:48;26.90;90.60
39103;DHT22;24847;48.218;16.414;2022-07-04T09:35:50;26.90;90.50
39103;DHT22;24847;48.218;16.414;2022-07-04T09:40:53;26.80;90.60
39103;DHT22;24847;48.218;16.414;2022-07-04T09:46:22;26.80;90.30
39103;DHT22;24847;48.218;16.414;2022-07-04T09:51:38;26.80;90.40
39103;DHT22;24847;48.218;16.414;2022-07-04T09:56:42;26.70;90.50
39103;DHT22;24847;48.218;16.414;2022-07-04T10:01:47;26.70;90.30
39103;DHT22;24847;48.218;16.414;2022-07-04T10:06:50;26.70;90.40
39103;DHT22;24847;48.218;16.414;2022-07-04T10:11:52;26.50;90.70
39103;DHT22;24847;48.218;16.414;2022-07-04T10:16:55;26.70;90.50
39103;DHT22;24847;48.218;16.414;2022-07-04T10:22:00;26.80;90.60
39103;DHT22;24847;48.218;16.414;2022-07-04T10:27:04;27.00;90.70
39103;DHT22;24847;48.218;16.414;2022-07-04T10:32:08;26.70;90.60
39103;DHT22;24847;48.218;16.414;2022-07-04T10:37:10;26.60;91.00
39103;DHT22;24847;48.218;16.414;2022-07-04T10:42:22;26.70;90.70
39103;DHT22;24847;48.218;16.414;2022-07-04T10:47:26;26.70;90.80
39103;DHT22;24847;48.218;16.414;2022-07-04T10:52:30;27.10;90.60
39103;DHT22;24847;48.218;16.414;2022-07-04T10:57:38;27.00;90.40
39103;DHT22;24847;48.218;16.414;2022-07-04T11:02:41;27.70;90.10
39103;DHT22;24847;48.218;16.414;2022-07-04T11:08:04;28.20;89.60
39103;DHT22;24847;48.218;16.414;2022-07-04T11:13:17;28.00;90.10
39103;DHT22;24847;48.218;16.414;2022-07-04T11:18:21;28.40;88.80
39103;DHT22;24847;48.218;16.414;2022-07-04T11:23:24;28.70;88.80
39103;DHT22;24847;48.218;16.414;2022-07-04T11:28:27;29.10;88.40
39103;DHT22;24847;48.218;16.414;2022-07-04T11:33:33;29.40;87.30
39103;DHT22;24847;48.218;16.414;2022-07-04T11:38:48;29.40;87.10
39103;DHT22;24847;48.218;16.414;2022-07-04T11:43:54;29.20;87.10
39103;DHT22;24847;48.218;16.414;2022-07-04T11:49:12;29.20;86.20
39103;DHT22;24847;48.218;16.414;2022-07-04T11:54:14;28.90;86.70
39103;DHT22;24847;48.218;16.414;2022-07-04T11:59:17;28.70;86.00
39103;DHT22;24847;48.218;16.414;2022-07-04T12:04:21;28.70;87.10
39103;DHT22;24847;48.218;16.414;2022-07-04T12:09:23;28.80;86.60
39103;DHT22;24847;48.218;16.414;2022-07-04T12:14:26;29.00;86.40
39103;DHT22;24847;48.218;16.414;2022-07-04T12:19:30;28.80;86.40
39103;DHT22;24847;48.218;16.414;2022-07-04T12:24:42;28.90;86.20
39103;DHT22;24847;48.218;16.414;2022-07-04T12:29:47;28.90;85.30
39103;DHT22;24847;48.218;16.414;2022-07-04T12:34:51;29.10;84.30
39103;DHT22;24847;48.218;16.414;2022-07-04T12:39:53;29.00;85.00
39103;DHT22;24847;48.218;16.414;2022-07-04T12:45:05;29.10;84.30
39103;DHT22;24847;48.218;16.414;2022-07-04T12:50:10;29.20;84.00
39103;DHT22;24847;48.218;16.414;2022-07-04T12:55:14;29.20;84.20
39103;DHT22;24847;48.218;16.414;2022-07-04T13:00:16;29.50;83.30
39103;DHT22;24847;48.218;16.414;2022-07-04T13:05:20;29.50;83.70
39103;DHT22;24847;48.218;16.414;2022-07-04T13:10:22;29.60;82.90
39103;DHT22;24847;48.218;16.414;2022-07-04T13:15:24;29.70;82.20
39103;DHT22;24847;48.218;16.414;2022-07-04T13:20:28;29.70;83.10
39103;DHT22;24847;48.218;16.414;2022-07-04T13:25:30;29.80;81.80
39103;DHT22;24847;48.218;16.414;2022-07-04T13:30:33;29.50;82.00
39103;DHT22;24847;48.218;16.414;2022-07-04T13:35:36;29.60;82.20
39103;DHT22;24847;48.218;16.414;2022-07-04T13:40:38;29.80;82.40
39103;DHT22;24847;48.218;16.414;2022-07-04T13:45:41;29.90;83.30
39103;DHT22;24847;48.218;16.414;2022-07-04T13:50:46;29.80;81.70
39103;DHT22;24847;48.218;16.414;2022-07-04T13:55:49;29.90;81.50
39103;DHT22;24847;48.218;16.414;2022-07-04T14:00:51;29.70;80.70
39103;DHT22;24847;48.218;16.414;2022-07-04T14:05:54;29.60;79.90
39103;DHT22;24847;48.218;16.414;2022-07-04T14:10:56;29.80;81.70
39103;DHT22;24847;48.218;16.414;2022-07-04T14:15:59;30.00;81.10
39103;DHT22;24847;48.218;16.414;2022-07-04T14:21:04;30.10;82.40
39103;DHT22;24847;48.218;16.414;2022-07-04T14:26:07;30.50;81.10
39103;DHT22;24847;48.218;16.414;2022-07-04T14:31:09;30.50;80.90
39103;DHT22;24847;48.218;16.414;2022-07-04T14:36:13;30.30;84.20
39103;DHT22;24847;48.218;16.414;2022-07-04T14:41:15;30.20;86.30
39103;DHT22;24847;48.218;16.414;2022-07-04T14:46:18;30.10;85.60
39103;DHT22;24847;48.218;16.414;2022-07-04T14:51:21;30.10;85.30
39103;DHT22;24847;48.218;16.414;2022-07-04T14:56:23;30.20;85.20
39103;DHT22;24847;48.218;16.414;2022-07-04T15:01:26;30.00;85.30
39103;DHT22;24847;48.218;16.414;2022-07-04T15:06:29;30.00;85.00
39103;DHT22;24847;48.218;16.414;2022-07-04T15:11:32;29.90;86.00
39103;DHT22;24847;48.218;16.414;2022-07-04T15:16:34;29.80;86.00
39103;DHT22;24847;48.218;16.414;2022-07-04T15:21:38;29.70;86.20
39103;DHT22;24847;48.218;16.414;2022-07-04T15:26:57;29.30;82.50
39103;DHT22;24847;48.218;16.414;2022-07-04T15:31:59;29.20;82.40
39103;DHT22;24847;48.218;16.414;2022-07-04T15:37:03;29.00;84.00
39103;DHT22;24847;48.218;16.414;2022-07-04T15:42:05;28.90;85.90
39103;DHT22;24847;48.218;16.414;2022-07-04T15:47:08;28.80;85.70
39103;DHT22;24847;48.218;16.414;2022-07-04T15:52:11;28.90;85.10
39103;DHT22;24847;48.218;16.414;2022-07-04T15:57:13;28.70;86.70
39103;DHT22;24847;48.218;16.414;2022-07-04T16:02:16;28.70;86.40
39103;DHT22;24847;48.218;16.414;2022-07-04T16:07:19;28.60;87.10
39103;DHT22;24847;48.218;16.414;2022-07-04T16:12:22;28.30;87.70
39103;DHT22;24847;48.218;16.414;2022-07-04T16:17:24;28.10;89.20
39103;DHT22;24847;48.218;16.414;2022-07-04T16:22:28;28.10;89.60
39103;DHT22;24847;48.218;16.414;2022-07-04T16:27:30;28.00;90.20
39103;DHT22;24847;48.218;16.414;2022-07-04T16:32:32;27.90;90.40
39103;DHT22;24847;48.218;16.414;2022-07-04T16:37:37;27.70;90.70
39103;DHT22;24847;48.218;16.414;2022-07-04T16:42:39;27.70;90.90
39103;DHT22;24847;48.218;16.414;2022-07-04T16:47:41;27.60;91.30
39103;DHT22;24847;48.218;16.414;2022-07-04T16:52:44;27.60;91.30
39103;DHT22;24847;48.218;16.414;2022-07-04T16:57:47;27.50;91.30
39103;DHT22;24847;48.218;16.414;2022-07-04T17:02:49;27.40;91.50
39103;DHT22;24847;48.218;16.414;2022-07-04T17:07:53;27.30;91.50
39103;DHT22;24847;48.218;16.414;2022-07-04T17:12:55;27.10;91.50
39103;DHT22;24847;48.218;16.414;2022-07-04T17:17:57;27.20;91.30
39103;DHT22;24847;48.218;16.414;2022-07-04T17:23:01;27.00;91.40
39103;DHT22;24847;48.218;16.414;2022-07-04T17:28:04;27.00;91.60
39103;DHT22;24847;48.218;16.414;2022-07-04T17:33:06;26.90;91.60
39103;DHT22;24847;48.218;16.414;2022-07-04T17:38:10;26.90;91.90
39103;DHT22;24847;48.218;16.414;2022-07-04T17:43:13;26.70;92.30
39103;DHT22;24847;48.218;16.414;2022-07-04T17:48:15;26.70;92.30
39103;DHT22;24847;48.218;16.414;2022-07-04T17:53:19;26.80;92.30
39103;DHT22;24847;48.218;16.414;2022-07-04T17:58:21;26.70;92.30
39103;DHT22;24847;48.218;16.414;2022-07-04T18:03:24;26.70;92.40
39103;DHT22;24847;48.218;16.414;2022-07-04T18:08:28;26.80;92.40
39103;DHT22;24847;48.218;16.414;2022-07-04T18:13:30;26.60;92.30
39103;DHT22;24847;48.218;16.414;2022-07-04T18:18:32;26.70;92.30
39103;DHT22;24847;48.218;16.414;2022-07-04T18:23:35;26.50;92.30
39103;DHT22;24847;48.218;16.414;2022-07-04T18:28:38;26.40;92.30
39103;DHT22;24847;48.218;16.414;2022-07-04T18:33:40;26.50;92.40
39103;DHT22;24847;48.218;16.414;2022-07-04T18:38:44;26.50;92.50
39103;DHT22;24847;48.218;16.414;2022-07-04T18:43:46;26.50;92.70
39103;DHT22;24847;48.218;16.414;2022-07-04T18:48:49;26.40;93.40
39103;DHT22;24847;48.218;16.414;2022-07-04T18:53:52;26.40;94.60
39103;DHT22;24847;48.218;16.414;2022-07-04T18:58:54;26.10;94.90
39103;DHT22;24847;48.218;16.414;2022-07-04T19:03:56;26.10;95.10
39103;DHT22;24847;48.218;16.414;2022-07-04T19:09:00;25.80;95.10
39103;DHT22;24847;48.218;16.414;2022-07-04T19:14:03;25.80;95.60
39103;DHT22;24847;48.218;16.414;2022-07-04T19:19:05;25.90;96.10
39103;DHT22;24847;48.218;16.414;2022-07-04T19:24:09;25.90;95.70
39103;DHT22;24847;48.218;16.414;2022-07-04T19:29:11;25.60;96.20
39103;DHT22;24847;48.218;16.414;2022-07-04T19:34:14;25.60;95.60
39103;DHT22;24847;48.218;16.414;2022-07-04T19:39:18;25.30;96.10
39103;DHT22;24847;48.218;16.414;2022-07-04T19:44:20;25.20;96.70
39103;DHT22;24847;48.218;16.414;2022-07-04T19:49:22;25.00;96.70
39103;DHT22;24847;48.218;16.414;2022-07-04T19:54:26;25.00;97.50
39103;DHT22;24847;48.218;16.414;2022-07-04T19:59:28;24.90;97.90
39103;DHT22;24847;48.218;16.414;2022-07-04T20:04:31;24.80;98.10
39103;DHT22;24847;48.218;16.414;2022-07-04T20:09:34;24.60;98.10
39103;DHT22;24847;48.218;16.414;2022-07-04T20:14:37;24.60;98.80
39103;DHT22;24847;48.218;16.414;2022-07-04T20:19:39;24.50;99.10
39103;DHT22;24847;48.218;16.414;2022-07-04T20:24:44;24.40;99.90
39103;DHT22;24847;48.218;16.414;2022-07-04T20:29:48;24.30;99.90
39103;DHT22;24847;48.218;16.414;2022-07-04T20:34:56;24.10;99.90
39103;DHT22;24847;48.218;16.414;2022-07-04T20:40:03;24.00;99.90
39103;DHT22;24847;48.218;16.414;2022-07-04T20:45:07;24.10;99.90
39103;DHT22;24847;48.218;16.414;2022-07-04T20:50:10;24.00;99.90
39103;DHT22;24847;48.218;16.414;2022-07-04T20:55:14;23.90;99.90
39103;DHT22;24847;48.218;16.414;2022-07-04T21:00:16;23.70;99.90
39103;DHT22;24847;48.218;16.414;2022-07-04T21:05:19;23.60;99.90
39103;DHT22;24847;48.218;16.414;2022-07-04T21:10:24;23.60;99.90
39103;DHT22;24847;48.218;16.414;2022-07-04T21:15:26;23.50;99.90
39103;DHT22;24847;48.218;16.414;2022-07-04T21:20:28;23.60;99.90
39103;DHT22;24847;48.218;16.414;2022-07-04T21:25:32;23.60;99.90
39103;DHT22;24847;48.218;16.414;2022-07-04T21:30:34;23.60;99.90
39103;DHT22;24847;48.218;16.414;2022-07-04T21:35:37;23.40;99.90
39103;DHT22;24847;48.218;16.414;2022-07-04T21:40:40;23.20;99.90
39103;DHT22;24847;48.218;16.414;2022-07-04T21:45:43;23.30;99.90
39103;DHT22;24847;48.218;16.414;2022-07-04T21:50:45;23.40;99.90
39103;DHT22;24847;48.218;16.414;2022-07-04T21:55:49;23.00;99.90
39103;DHT22;24847;48.218;16.414;2022-07-04T22:00:51;23.00;99.90
39103;DHT22;24847;48.218;16.414;2022-07-04T22:05:53;22.80;99.90
39103;DHT22;24847;48.218;16.414;2022-07-04T22:10:57;22.90;99.90
39103;DHT22;24847;48.218;16.414;2022-07-04T22:15:59;23.00;99.90
39103;DHT22;24847;48.218;16.414;2022-07-04T22:21:01;22.80;99.90
39103;DHT22;24847;48.218;16.414;2022-07-04T22:26:06;23.00;99.90
39103;DHT22;24847;48.218;16.414;2022-07-04T22:31:08;23.00;99.90
39103;DHT22;24847;48.218;16.414;2022-07-04T22:36:10;23.00;99.90
39103;DHT22;24847;48.218;16.414;2022-07-04T22:41:14;23.00;99.90
39103;DHT22;24847;48.218;16.414;2022-07-04T22:46:16;23.00;99.90
39103;DHT22;24847;48.218;16.414;2022-07-04T22:51:18;22.90;99.90
39103;DHT22;24847;48.218;16.414;2022-07-04T22:56:22;23.00;99.90
39103;DHT22;24847;48.218;16.414;2022-07-04T23:01:25;22.90;99.90
39103;DHT22;24847;48.218;16.414;2022-07-04T23:06:27;22.80;99.90
39103;DHT22;24847;48.218;16.414;2022-07-04T23:11:31;22.60;99.90
39103;DHT22;24847;48.218;16.414;2022-07-04T23:16:34;22.80;99.90
39103;DHT22;24847;48.218;16.414;2022-07-04T23:21:36;22.70;99.90
39103;DHT22;24847;48.218;16.414;2022-07-04T23:26:39;22.90;99.90
39103;DHT22;24847;48.218;16.414;2022-07-04T23:31:42;22.80;99.90
39103;DHT22;24847;48.218;16.414;2022-07-04T23:36:44;22.80;99.90
39103;DHT22;24847;48.218;16.414;2022-07-04T23:41:48;22.80;99.90
39103;DHT22;24847;48.218;16.414;2022-07-04T23:46:50;22.70;99.90
39103;DHT22;24847;48.218;16.414;2022-07-04T23:51:52;22.80;99.90
39103;DHT22;24847;48.218;16.414;2022-07-04T23:56:56;22.70;99.90
